sensor_id;sensor_type;location;lat;lon;timestamp;P1;durP1;ratioP1;P2;durP2;ratioP2
38123;SDS011;23934;47.998;9.832;2023-02-15T00:01:45;47.72;;;8.23;;
38123;SDS011;23934;47.998;9.832;2023-02-15T00:04:12;50.03;;;9.45;;
38123;SDS011;23934;47.998;9.832;2023-02-15T00:06:39;23.20;;;10.13;;
38123;SDS011;23934;47.998;9.832;2023-02-15T00:09:05;26.77;;;7.40;;
38123;SDS011;23934;47.998;9.832;2023-02-15T00:11:31;28.35;;;8.65;;
38123;SDS011;23934;47.998;9.832;2023-02-15T00:14:12;28.38;;;8.63;;
38123;SDS011;23934;47.998;9.832;2023-02-15T00:19:05;45.40;;;9.82;;
38123;SDS011;23934;47.998;9.832;2023-02-15T00:21:32;38.20;;;9.00;;
38123;SDS011;23934;47.998;9.832;2023-02-15T00:23:58;37.88;;;10.00;;
38123;SDS011;23934;47.998;9.832;2023-02-15T00:26:25;72.75;;;9.52;;
38123;SDS011;23934;47.998;9.832;2023-02-15T00:28:52;45.17;;;10.45;;
38123;SDS011;23934;47.998;9.832;2023-02-15T00:31:18;34.72;;;10.10;;
38123;SDS011;23934;47.998;9.832;2023-02-15T00:33:44;22.33;;;8.82;;
38123;SDS011;23934;47.998;9.832;2023-02-15T00:36:11;41.58;;;9.68;;
38123;SDS011;23934;47.998;9.832;2023-02-15T00:38:37;41.58;;;11.02;;
38123;SDS011;23934;47.998;9.832;2023-02-15T00:41:04;25.02;;;9.25;;
38123;SDS011;23934;47.998;9.832;2023-02-15T00:43:30;21.55;;;8.13;;
38123;SDS011;23934;47.998;9.832;2023-02-15T00:45:56;35.33;;;8.57;;
38123;SDS011;23934;47.998;9.832;2023-02-15T00:48:23;22.95;;;8.75;;
38123;SDS011;23934;47.998;9.832;2023-02-15T00:50:50;33.30;;;11.05;;
38123;SDS011;23934;47.998;9.832;2023-02-15T00:53:16;31.63;;;9.32;;
38123;SDS011;23934;47.998;9.832;2023-02-15T00:55:42;37.83;;;9.60;;
38123;SDS011;23934;47.998;9.832;2023-02-15T00:58:09;32.28;;;9.13;;
38123;SDS011;23934;47.998;9.832;2023-02-15T01:00:35;28.55;;;9.23;;
38123;SDS011;23934;47.998;9.832;2023-02-15T01:03:01;31.20;;;9.63;;
38123;SDS011;23934;47.998;9.832;2023-02-15T01:05:27;43.80;;;9.88;;
38123;SDS011;23934;47.998;9.832;2023-02-15T01:07:54;25.92;;;8.27;;
38123;SDS011;23934;47.998;9.832;2023-02-15T01:10:20;22.92;;;8.93;;
38123;SDS011;23934;47.998;9.832;2023-02-15T01:12:46;26.27;;;8.05;;
38123;SDS011;23934;47.998;9.832;2023-02-15T01:15:12;22.63;;;7.22;;
38123;SDS011;23934;47.998;9.832;2023-02-15T01:17:38;61.05;;;6.45;;
38123;SDS011;23934;47.998;9.832;2023-02-15T01:20:05;20.88;;;6.68;;
38123;SDS011;23934;47.998;9.832;2023-02-15T01:22:31;21.60;;;7.03;;
38123;SDS011;23934;47.998;9.832;2023-02-15T01:24:57;28.10;;;7.82;;
38123;SDS011;23934;47.998;9.832;2023-02-15T01:27:23;31.65;;;8.52;;
38123;SDS011;23934;47.998;9.832;2023-02-15T01:29:49;34.83;;;9.32;;
38123;SDS011;23934;47.998;9.832;2023-02-15T01:32:15;27.88;;;10.13;;
38123;SDS011;23934;47.998;9.832;2023-02-15T01:34:41;22.10;;;7.97;;
38123;SDS011;23934;47.998;9.832;2023-02-15T01:37:07;23.75;;;8.20;;
38123;SDS011;23934;47.998;9.832;2023-02-15T01:39:33;26.45;;;9.77;;
38123;SDS011;23934;47.998;9.832;2023-02-15T01:41:59;31.98;;;9.32;;
38123;SDS011;23934;47.998;9.832;2023-02-15T01:47:13;42.30;;;9.98;;
38123;SDS011;23934;47.998;9.832;2023-02-15T01:49:40;29.23;;;9.38;;
38123;SDS011;23934;47.998;9.832;2023-02-15T01:52:07;17.52;;;7.20;;
38123;SDS011;23934;47.998;9.832;2023-02-15T01:54:35;23.75;;;9.55;;
38123;SDS011;23934;47.998;9.832;2023-02-15T01:57:03;24.73;;;8.07;;
38123;SDS011;23934;47.998;9.832;2023-02-15T01:59:30;34.00;;;8.65;;
38123;SDS011;23934;47.998;9.832;2023-02-15T02:01:57;42.00;;;9.68;;
38123;SDS011;23934;47.998;9.832;2023-02-15T02:07:20;30.10;;;9.02;;
38123;SDS011;23934;47.998;9.832;2023-02-15T02:09:48;21.38;;;6.75;;
38123;SDS011;23934;47.998;9.832;2023-02-15T02:12:14;24.33;;;9.38;;
38123;SDS011;23934;47.998;9.832;2023-02-15T02:14:41;24.77;;;8.35;;
38123;SDS011;23934;47.998;9.832;2023-02-15T02:17:17;23.02;;;8.57;;
38123;SDS011;23934;47.998;9.832;2023-02-15T02:25:23;30.17;;;7.45;;
38123;SDS011;23934;47.998;9.832;2023-02-15T02:30:26;19.52;;;7.63;;
38123;SDS011;23934;47.998;9.832;2023-02-15T02:33:12;20.65;;;6.15;;
38123;SDS011;23934;47.998;9.832;2023-02-15T02:35:45;14.32;;;6.30;;
38123;SDS011;23934;47.998;9.832;2023-02-15T02:38:23;22.30;;;6.60;;
38123;SDS011;23934;47.998;9.832;2023-02-15T02:40:55;14.65;;;6.82;;
38123;SDS011;23934;47.998;9.832;2023-02-15T02:43:26;23.60;;;6.75;;
38123;SDS011;23934;47.998;9.832;2023-02-15T02:48:21;18.80;;;5.82;;
38123;SDS011;23934;47.998;9.832;2023-02-15T02:50:48;27.20;;;6.82;;
38123;SDS011;23934;47.998;9.832;2023-02-15T02:53:14;11.95;;;5.28;;
38123;SDS011;23934;47.998;9.832;2023-02-15T02:55:45;22.23;;;7.05;;
38123;SDS011;23934;47.998;9.832;2023-02-15T03:03:14;21.00;;;6.88;;
38123;SDS011;23934;47.998;9.832;2023-02-15T03:05:44;28.05;;;7.00;;
38123;SDS011;23934;47.998;9.832;2023-02-15T03:08:10;33.92;;;8.55;;
38123;SDS011;23934;47.998;9.832;2023-02-15T03:10:37;18.95;;;7.15;;
38123;SDS011;23934;47.998;9.832;2023-02-15T03:13:04;62.15;;;9.93;;
38123;SDS011;23934;47.998;9.832;2023-02-15T03:15:34;22.00;;;6.60;;
38123;SDS011;23934;47.998;9.832;2023-02-15T03:18:22;25.98;;;9.38;;
38123;SDS011;23934;47.998;9.832;2023-02-15T03:20:49;49.03;;;8.70;;
38123;SDS011;23934;47.998;9.832;2023-02-15T03:23:17;33.90;;;9.30;;
38123;SDS011;23934;47.998;9.832;2023-02-15T03:25:45;37.58;;;9.38;;
38123;SDS011;23934;47.998;9.832;2023-02-15T03:28:21;17.60;;;7.30;;
38123;SDS011;23934;47.998;9.832;2023-02-15T03:30:49;52.67;;;10.02;;
38123;SDS011;23934;47.998;9.832;2023-02-15T03:33:17;58.75;;;9.18;;
38123;SDS011;23934;47.998;9.832;2023-02-15T03:38:10;83.43;;;12.60;;
38123;SDS011;23934;47.998;9.832;2023-02-15T03:40:40;41.97;;;8.95;;
38123;SDS011;23934;47.998;9.832;2023-02-15T03:43:33;17.27;;;6.07;;
38123;SDS011;23934;47.998;9.832;2023-02-15T03:46:08;34.00;;;8.63;;
38123;SDS011;23934;47.998;9.832;2023-02-15T03:48:38;29.52;;;9.73;;
38123;SDS011;23934;47.998;9.832;2023-02-15T03:51:06;58.50;;;9.10;;
38123;SDS011;23934;47.998;9.832;2023-02-15T03:53:52;65.63;;;9.27;;
38123;SDS011;23934;47.998;9.832;2023-02-15T03:56:18;39.45;;;9.77;;
38123;SDS011;23934;47.998;9.832;2023-02-15T03:58:44;98.95;;;11.50;;
38123;SDS011;23934;47.998;9.832;2023-02-15T04:01:36;42.72;;;10.32;;
38123;SDS011;23934;47.998;9.832;2023-02-15T04:04:22;73.97;;;9.48;;
38123;SDS011;23934;47.998;9.832;2023-02-15T04:06:48;45.20;;;9.52;;
38123;SDS011;23934;47.998;9.832;2023-02-15T04:09:14;49.03;;;9.77;;
38123;SDS011;23934;47.998;9.832;2023-02-15T04:11:59;25.25;;;8.60;;
38123;SDS011;23934;47.998;9.832;2023-02-15T04:14:25;50.17;;;12.18;;
38123;SDS011;23934;47.998;9.832;2023-02-15T04:17:10;43.35;;;8.88;;
38123;SDS011;23934;47.998;9.832;2023-02-15T04:19:36;87.03;;;10.65;;
38123;SDS011;23934;47.998;9.832;2023-02-15T04:22:20;41.42;;;6.38;;
38123;SDS011;23934;47.998;9.832;2023-02-15T04:25:05;26.67;;;9.50;;
38123;SDS011;23934;47.998;9.832;2023-02-15T04:27:47;54.17;;;11.50;;
38123;SDS011;23934;47.998;9.832;2023-02-15T04:30:13;86.68;;;9.48;;
38123;SDS011;23934;47.998;9.832;2023-02-15T04:32:39;53.85;;;8.43;;
38123;SDS011;23934;47.998;9.832;2023-02-15T04:35:06;29.77;;;7.05;;
38123;SDS011;23934;47.998;9.832;2023-02-15T04:37:32;48.85;;;6.30;;
38123;SDS011;23934;47.998;9.832;2023-02-15T04:39:58;47.42;;;10.30;;
38123;SDS011;23934;47.998;9.832;2023-02-15T04:42:24;29.55;;;9.23;;
38123;SDS011;23934;47.998;9.832;2023-02-15T04:44:51;87.47;;;11.38;;
38123;SDS011;23934;47.998;9.832;2023-02-15T04:47:17;23.15;;;6.95;;
38123;SDS011;23934;47.998;9.832;2023-02-15T04:49:43;36.38;;;6.18;;
38123;SDS011;23934;47.998;9.832;2023-02-15T04:52:09;16.02;;;5.55;;
38123;SDS011;23934;47.998;9.832;2023-02-15T04:54:35;39.25;;;7.40;;
38123;SDS011;23934;47.998;9.832;2023-02-15T04:57:01;19.77;;;6.97;;
38123;SDS011;23934;47.998;9.832;2023-02-15T04:59:27;51.05;;;7.18;;
38123;SDS011;23934;47.998;9.832;2023-02-15T05:01:53;16.27;;;7.03;;
38123;SDS011;23934;47.998;9.832;2023-02-15T05:04:19;43.67;;;7.55;;
38123;SDS011;23934;47.998;9.832;2023-02-15T05:06:45;25.50;;;8.32;;
38123;SDS011;23934;47.998;9.832;2023-02-15T05:09:11;24.52;;;7.25;;
38123;SDS011;23934;47.998;9.832;2023-02-15T05:11:37;19.90;;;7.10;;
38123;SDS011;23934;47.998;9.832;2023-02-15T05:14:03;13.73;;;4.97;;
38123;SDS011;23934;47.998;9.832;2023-02-15T05:16:29;72.47;;;9.70;;
38123;SDS011;23934;47.998;9.832;2023-02-15T05:18:55;62.90;;;14.80;;
38123;SDS011;23934;47.998;9.832;2023-02-15T05:21:22;83.82;;;20.33;;
38123;SDS011;23934;47.998;9.832;2023-02-15T05:23:48;71.60;;;16.60;;
38123;SDS011;23934;47.998;9.832;2023-02-15T05:26:16;112.00;;;21.90;;
38123;SDS011;23934;47.998;9.832;2023-02-15T05:29:01;94.28;;;13.23;;
38123;SDS011;23934;47.998;9.832;2023-02-15T05:31:27;45.80;;;7.93;;
38123;SDS011;23934;47.998;9.832;2023-02-15T05:33:53;23.92;;;8.52;;
38123;SDS011;23934;47.998;9.832;2023-02-15T05:36:19;36.70;;;9.95;;
38123;SDS011;23934;47.998;9.832;2023-02-15T05:38:45;44.88;;;10.25;;
38123;SDS011;23934;47.998;9.832;2023-02-15T05:41:11;77.93;;;9.98;;
38123;SDS011;23934;47.998;9.832;2023-02-15T05:43:37;66.05;;;9.20;;
38123;SDS011;23934;47.998;9.832;2023-02-15T05:46:04;36.55;;;9.48;;
38123;SDS011;23934;47.998;9.832;2023-02-15T05:48:30;42.38;;;8.70;;
38123;SDS011;23934;47.998;9.832;2023-02-15T05:51:00;36.85;;;10.32;;
38123;SDS011;23934;47.998;9.832;2023-02-15T05:53:26;43.38;;;7.82;;
38123;SDS011;23934;47.998;9.832;2023-02-15T05:55:53;62.25;;;8.63;;
38123;SDS011;23934;47.998;9.832;2023-02-15T05:58:23;60.33;;;11.40;;
38123;SDS011;23934;47.998;9.832;2023-02-15T06:00:49;33.25;;;7.88;;
38123;SDS011;23934;47.998;9.832;2023-02-15T06:03:15;28.20;;;6.60;;
38123;SDS011;23934;47.998;9.832;2023-02-15T06:05:41;18.52;;;6.45;;
38123;SDS011;23934;47.998;9.832;2023-02-15T06:08:07;25.60;;;4.90;;
38123;SDS011;23934;47.998;9.832;2023-02-15T06:10:33;37.38;;;8.13;;
38123;SDS011;23934;47.998;9.832;2023-02-15T06:12:59;12.77;;;5.13;;
38123;SDS011;23934;47.998;9.832;2023-02-15T06:15:25;29.35;;;4.50;;
38123;SDS011;23934;47.998;9.832;2023-02-15T06:17:51;17.58;;;7.97;;
38123;SDS011;23934;47.998;9.832;2023-02-15T06:20:17;12.30;;;6.70;;
38123;SDS011;23934;47.998;9.832;2023-02-15T06:22:43;12.00;;;4.78;;
38123;SDS011;23934;47.998;9.832;2023-02-15T06:25:09;7.70;;;3.20;;
38123;SDS011;23934;47.998;9.832;2023-02-15T06:27:36;17.92;;;6.40;;
38123;SDS011;23934;47.998;9.832;2023-02-15T06:30:02;16.15;;;5.75;;
38123;SDS011;23934;47.998;9.832;2023-02-15T06:32:29;32.25;;;9.90;;
38123;SDS011;23934;47.998;9.832;2023-02-15T06:34:54;33.75;;;7.65;;
38123;SDS011;23934;47.998;9.832;2023-02-15T06:37:20;12.85;;;4.45;;
38123;SDS011;23934;47.998;9.832;2023-02-15T06:39:46;12.23;;;5.20;;
38123;SDS011;23934;47.998;9.832;2023-02-15T06:42:12;13.77;;;5.68;;
38123;SDS011;23934;47.998;9.832;2023-02-15T06:44:39;19.83;;;5.15;;
38123;SDS011;23934;47.998;9.832;2023-02-15T06:47:04;21.83;;;4.75;;
38123;SDS011;23934;47.998;9.832;2023-02-15T06:49:30;10.50;;;4.47;;
38123;SDS011;23934;47.998;9.832;2023-02-15T06:51:56;12.68;;;4.55;;
38123;SDS011;23934;47.998;9.832;2023-02-15T06:54:22;10.15;;;5.80;;
38123;SDS011;23934;47.998;9.832;2023-02-15T06:56:48;22.30;;;7.10;;
38123;SDS011;23934;47.998;9.832;2023-02-15T06:59:14;10.63;;;4.43;;
38123;SDS011;23934;47.998;9.832;2023-02-15T07:01:40;11.43;;;4.20;;
38123;SDS011;23934;47.998;9.832;2023-02-15T07:04:06;17.83;;;5.63;;
38123;SDS011;23934;47.998;9.832;2023-02-15T07:06:32;29.75;;;7.80;;
38123;SDS011;23934;47.998;9.832;2023-02-15T07:08:59;22.75;;;7.15;;
38123;SDS011;23934;47.998;9.832;2023-02-15T07:11:25;44.53;;;8.65;;
38123;SDS011;23934;47.998;9.832;2023-02-15T07:14:10;20.20;;;6.68;;
38123;SDS011;23934;47.998;9.832;2023-02-15T07:16:36;8.52;;;4.32;;
38123;SDS011;23934;47.998;9.832;2023-02-15T07:19:02;24.65;;;6.40;;
38123;SDS011;23934;47.998;9.832;2023-02-15T07:21:28;41.85;;;8.77;;
38123;SDS011;23934;47.998;9.832;2023-02-15T07:23:56;55.88;;;7.85;;
38123;SDS011;23934;47.998;9.832;2023-02-15T07:26:22;47.95;;;6.13;;
38123;SDS011;23934;47.998;9.832;2023-02-15T07:28:48;22.35;;;5.57;;
38123;SDS011;23934;47.998;9.832;2023-02-15T07:31:14;48.97;;;4.93;;
38123;SDS011;23934;47.998;9.832;2023-02-15T07:33:40;34.67;;;7.15;;
38123;SDS011;23934;47.998;9.832;2023-02-15T07:36:06;40.42;;;8.52;;
38123;SDS011;23934;47.998;9.832;2023-02-15T07:38:38;13.73;;;5.68;;
38123;SDS011;23934;47.998;9.832;2023-02-15T07:41:05;19.02;;;6.20;;
38123;SDS011;23934;47.998;9.832;2023-02-15T07:43:35;20.27;;;4.88;;
38123;SDS011;23934;47.998;9.832;2023-02-15T07:46:02;15.43;;;5.95;;
38123;SDS011;23934;47.998;9.832;2023-02-15T07:48:29;30.98;;;7.75;;
38123;SDS011;23934;47.998;9.832;2023-02-15T07:50:58;27.73;;;8.20;;
38123;SDS011;23934;47.998;9.832;2023-02-15T07:53:24;22.60;;;8.57;;
38123;SDS011;23934;47.998;9.832;2023-02-15T07:55:50;20.90;;;6.75;;
38123;SDS011;23934;47.998;9.832;2023-02-15T07:58:17;35.83;;;11.75;;
38123;SDS011;23934;47.998;9.832;2023-02-15T08:00:43;17.45;;;7.00;;
38123;SDS011;23934;47.998;9.832;2023-02-15T08:03:24;23.80;;;8.52;;
38123;SDS011;23934;47.998;9.832;2023-02-15T08:05:57;26.40;;;7.85;;
38123;SDS011;23934;47.998;9.832;2023-02-15T08:08:23;18.90;;;7.93;;
38123;SDS011;23934;47.998;9.832;2023-02-15T08:13:46;33.47;;;10.30;;
38123;SDS011;23934;47.998;9.832;2023-02-15T08:16:19;28.35;;;9.65;;
38123;SDS011;23934;47.998;9.832;2023-02-15T08:18:45;28.17;;;9.30;;
38123;SDS011;23934;47.998;9.832;2023-02-15T08:21:11;37.92;;;11.93;;
38123;SDS011;23934;47.998;9.832;2023-02-15T08:23:37;29.95;;;7.88;;
38123;SDS011;23934;47.998;9.832;2023-02-15T08:26:02;17.10;;;6.40;;
38123;SDS011;23934;47.998;9.832;2023-02-15T08:28:29;24.52;;;6.95;;
38123;SDS011;23934;47.998;9.832;2023-02-15T08:31:03;28.83;;;8.70;;
38123;SDS011;23934;47.998;9.832;2023-02-15T08:33:29;40.28;;;8.13;;
38123;SDS011;23934;47.998;9.832;2023-02-15T08:35:55;23.63;;;8.52;;
38123;SDS011;23934;47.998;9.832;2023-02-15T08:38:21;44.85;;;11.13;;
38123;SDS011;23934;47.998;9.832;2023-02-15T08:40:47;42.05;;;8.73;;
38123;SDS011;23934;47.998;9.832;2023-02-15T08:43:13;44.50;;;10.60;;
38123;SDS011;23934;47.998;9.832;2023-02-15T08:45:39;39.70;;;9.98;;
38123;SDS011;23934;47.998;9.832;2023-02-15T08:48:05;53.28;;;12.55;;
38123;SDS011;23934;47.998;9.832;2023-02-15T08:50:31;62.58;;;15.35;;
38123;SDS011;23934;47.998;9.832;2023-02-15T08:52:56;51.50;;;13.70;;
38123;SDS011;23934;47.998;9.832;2023-02-15T08:55:22;59.33;;;13.38;;
38123;SDS011;23934;47.998;9.832;2023-02-15T08:57:48;75.55;;;21.55;;
38123;SDS011;23934;47.998;9.832;2023-02-15T09:00:14;195.25;;;40.35;;
38123;SDS011;23934;47.998;9.832;2023-02-15T09:02:41;55.08;;;13.80;;
38123;SDS011;23934;47.998;9.832;2023-02-15T09:05:07;72.15;;;16.25;;
38123;SDS011;23934;47.998;9.832;2023-02-15T09:07:33;104.55;;;20.48;;
38123;SDS011;23934;47.998;9.832;2023-02-15T09:09:58;76.25;;;14.18;;
38123;SDS011;23934;47.998;9.832;2023-02-15T09:12:24;94.03;;;15.57;;
38123;SDS011;23934;47.998;9.832;2023-02-15T09:14:50;20.42;;;5.47;;
38123;SDS011;23934;47.998;9.832;2023-02-15T09:17:16;0.20;;;0.20;;
38123;SDS011;23934;47.998;9.832;2023-02-15T09:19:42;0.30;;;0.30;;
38123;SDS011;23934;47.998;9.832;2023-02-15T09:22:08;0.10;;;0.10;;
38123;SDS011;23934;47.998;9.832;2023-02-15T09:24:34;1.02;;;1.02;;
38123;SDS011;23934;47.998;9.832;2023-02-15T09:27:00;3.53;;;1.08;;
38123;SDS011;23934;47.998;9.832;2023-02-15T09:29:26;0.90;;;0.90;;
38123;SDS011;23934;47.998;9.832;2023-02-15T09:31:52;0.00;;;0.00;;
38123;SDS011;23934;47.998;9.832;2023-02-15T09:34:20;3.58;;;2.08;;
38123;SDS011;23934;47.998;9.832;2023-02-15T09:36:46;0.52;;;0.52;;
38123;SDS011;23934;47.998;9.832;2023-02-15T09:39:20;4.85;;;2.40;;
38123;SDS011;23934;47.998;9.832;2023-02-15T09:45:04;0.45;;;0.45;;
38123;SDS011;23934;47.998;9.832;2023-02-15T09:47:19;0.30;;;0.28;;
38123;SDS011;23934;47.998;9.832;2023-02-15T09:49:55;0.45;;;0.45;;
38123;SDS011;23934;47.998;9.832;2023-02-15T09:57:35;4.05;;;2.00;;
38123;SDS011;23934;47.998;9.832;2023-02-15T10:10:17;2.55;;;2.25;;
38123;SDS011;23934;47.998;9.832;2023-02-15T10:13:11;0.40;;;0.40;;
38123;SDS011;23934;47.998;9.832;2023-02-15T10:15:39;0.20;;;0.20;;
38123;SDS011;23934;47.998;9.832;2023-02-15T10:23:35;0.65;;;0.65;;
38123;SDS011;23934;47.998;9.832;2023-02-15T10:26:07;0.40;;;0.40;;
38123;SDS011;23934;47.998;9.832;2023-02-15T10:33:43;1.88;;;1.35;;
38123;SDS011;23934;47.998;9.832;2023-02-15T10:36:23;6.10;;;2.38;;
38123;SDS011;23934;47.998;9.832;2023-02-15T10:49:12;4.50;;;1.48;;
38123;SDS011;23934;47.998;9.832;2023-02-15T10:54:30;17.75;;;5.68;;
38123;SDS011;23934;47.998;9.832;2023-02-15T11:02:20;79.88;;;19.90;;
38123;SDS011;23934;47.998;9.832;2023-02-15T11:07:52;77.53;;;19.30;;
38123;SDS011;23934;47.998;9.832;2023-02-15T11:10:26;104.18;;;23.48;;
38123;SDS011;23934;47.998;9.832;2023-02-15T11:12:55;132.98;;;29.10;;
38123;SDS011;23934;47.998;9.832;2023-02-15T11:23:18;38.67;;;12.13;;
38123;SDS011;23934;47.998;9.832;2023-02-15T11:25:52;29.02;;;10.23;;
38123;SDS011;23934;47.998;9.832;2023-02-15T11:28:20;33.22;;;9.90;;
38123;SDS011;23934;47.998;9.832;2023-02-15T11:30:53;31.65;;;11.02;;
38123;SDS011;23934;47.998;9.832;2023-02-15T11:33:25;28.48;;;10.20;;
38123;SDS011;23934;47.998;9.832;2023-02-15T11:35:54;31.38;;;10.20;;
38123;SDS011;23934;47.998;9.832;2023-02-15T11:38:28;28.67;;;10.55;;
38123;SDS011;23934;47.998;9.832;2023-02-15T11:40:55;37.22;;;11.35;;
38123;SDS011;23934;47.998;9.832;2023-02-15T11:43:26;28.00;;;10.70;;
38123;SDS011;23934;47.998;9.832;2023-02-15T11:45:54;26.83;;;10.37;;
38123;SDS011;23934;47.998;9.832;2023-02-15T11:48:20;27.50;;;10.70;;
38123;SDS011;23934;47.998;9.832;2023-02-15T11:50:46;33.95;;;10.65;;
38123;SDS011;23934;47.998;9.832;2023-02-15T11:53:13;32.85;;;10.35;;
38123;SDS011;23934;47.998;9.832;2023-02-15T11:55:41;29.38;;;10.65;;
38123;SDS011;23934;47.998;9.832;2023-02-15T11:58:13;31.27;;;10.20;;
38123;SDS011;23934;47.998;9.832;2023-02-15T12:00:45;28.73;;;10.27;;
38123;SDS011;23934;47.998;9.832;2023-02-15T12:05:49;33.88;;;10.43;;
38123;SDS011;23934;47.998;9.832;2023-02-15T12:08:17;30.67;;;10.02;;
38123;SDS011;23934;47.998;9.832;2023-02-15T12:10:50;27.77;;;10.73;;
38123;SDS011;23934;47.998;9.832;2023-02-15T12:13:19;26.08;;;10.30;;
38123;SDS011;23934;47.998;9.832;2023-02-15T12:15:49;26.65;;;9.88;;
38123;SDS011;23934;47.998;9.832;2023-02-15T12:18:20;28.25;;;9.50;;
38123;SDS011;23934;47.998;9.832;2023-02-15T12:20:47;31.50;;;10.82;;
38123;SDS011;23934;47.998;9.832;2023-02-15T12:23:15;29.48;;;9.70;;
38123;SDS011;23934;47.998;9.832;2023-02-15T12:25:54;26.20;;;8.98;;
38123;SDS011;23934;47.998;9.832;2023-02-15T12:28:31;28.92;;;9.15;;
38123;SDS011;23934;47.998;9.832;2023-02-15T12:30:58;25.33;;;9.02;;
38123;SDS011;23934;47.998;9.832;2023-02-15T12:33:34;30.20;;;9.48;;
38123;SDS011;23934;47.998;9.832;2023-02-15T12:36:08;28.63;;;10.13;;
38123;SDS011;23934;47.998;9.832;2023-02-15T12:38:35;28.20;;;10.40;;
38123;SDS011;23934;47.998;9.832;2023-02-15T12:41:05;25.85;;;9.05;;
38123;SDS011;23934;47.998;9.832;2023-02-15T12:43:46;28.15;;;10.88;;
38123;SDS011;23934;47.998;9.832;2023-02-15T12:48:44;32.05;;;11.02;;
38123;SDS011;23934;47.998;9.832;2023-02-15T12:51:13;31.92;;;11.32;;
38123;SDS011;23934;47.998;9.832;2023-02-15T12:53:39;35.35;;;12.55;;
38123;SDS011;23934;47.998;9.832;2023-02-15T12:56:09;29.77;;;11.30;;
38123;SDS011;23934;47.998;9.832;2023-02-15T12:58:37;36.22;;;11.32;;
38123;SDS011;23934;47.998;9.832;2023-02-15T13:01:16;29.90;;;11.48;;
38123;SDS011;23934;47.998;9.832;2023-02-15T13:03:54;33.22;;;10.43;;
38123;SDS011;23934;47.998;9.832;2023-02-15T13:06:21;29.02;;;9.40;;
38123;SDS011;23934;47.998;9.832;2023-02-15T13:08:47;27.65;;;10.38;;
38123;SDS011;23934;47.998;9.832;2023-02-15T13:11:19;26.67;;;10.20;;
38123;SDS011;23934;47.998;9.832;2023-02-15T13:16:12;27.38;;;9.70;;
38123;SDS011;23934;47.998;9.832;2023-02-15T13:18:40;29.13;;;10.20;;
38123;SDS011;23934;47.998;9.832;2023-02-15T13:21:12;32.17;;;11.23;;
38123;SDS011;23934;47.998;9.832;2023-02-15T13:23:39;26.33;;;9.15;;
38123;SDS011;23934;47.998;9.832;2023-02-15T13:26:09;26.33;;;9.43;;
38123;SDS011;23934;47.998;9.832;2023-02-15T13:28:46;26.33;;;8.85;;
38123;SDS011;23934;47.998;9.832;2023-02-15T13:31:17;24.65;;;9.60;;
38123;SDS011;23934;47.998;9.832;2023-02-15T13:33:46;33.72;;;9.50;;
38123;SDS011;23934;47.998;9.832;2023-02-15T13:41:34;28.98;;;9.73;;
38123;SDS011;23934;47.998;9.832;2023-02-15T13:46:39;29.35;;;9.88;;
38123;SDS011;23934;47.998;9.832;2023-02-15T13:51:54;29.17;;;8.40;;
38123;SDS011;23934;47.998;9.832;2023-02-15T13:55:15;31.70;;;9.02;;
38123;SDS011;23934;47.998;9.832;2023-02-15T13:57:16;26.15;;;8.38;;
38123;SDS011;23934;47.998;9.832;2023-02-15T14:02:27;26.60;;;8.00;;
38123;SDS011;23934;47.998;9.832;2023-02-15T14:06:00;26.63;;;8.55;;
38123;SDS011;23934;47.998;9.832;2023-02-15T14:15:47;26.42;;;9.05;;
38123;SDS011;23934;47.998;9.832;2023-02-15T14:20:59;31.80;;;10.15;;
38123;SDS011;23934;47.998;9.832;2023-02-15T14:29:05;27.15;;;8.48;;
38123;SDS011;23934;47.998;9.832;2023-02-15T14:31:34;30.23;;;9.93;;
38123;SDS011;23934;47.998;9.832;2023-02-15T14:34:02;22.33;;;7.60;;
38123;SDS011;23934;47.998;9.832;2023-02-15T14:36:29;21.38;;;8.38;;
38123;SDS011;23934;47.998;9.832;2023-02-15T14:41:55;28.25;;;10.05;;
38123;SDS011;23934;47.998;9.832;2023-02-15T14:44:27;30.45;;;10.02;;
38123;SDS011;23934;47.998;9.832;2023-02-15T14:47:07;28.50;;;10.00;;
38123;SDS011;23934;47.998;9.832;2023-02-15T14:49:36;24.13;;;8.35;;
38123;SDS011;23934;47.998;9.832;2023-02-15T14:52:03;27.20;;;7.97;;
38123;SDS011;23934;47.998;9.832;2023-02-15T15:00:36;24.73;;;8.63;;
38123;SDS011;23934;47.998;9.832;2023-02-15T15:02:14;26.88;;;8.80;;
38123;SDS011;23934;47.998;9.832;2023-02-15T15:07:26;27.73;;;8.88;;
38123;SDS011;23934;47.998;9.832;2023-02-15T15:14:51;25.63;;;9.50;;
38123;SDS011;23934;47.998;9.832;2023-02-15T15:22:28;23.98;;;8.18;;
38123;SDS011;23934;47.998;9.832;2023-02-15T15:24:58;33.95;;;10.63;;
38123;SDS011;23934;47.998;9.832;2023-02-15T15:27:41;25.73;;;8.70;;
38123;SDS011;23934;47.998;9.832;2023-02-15T15:50:31;29.30;;;8.85;;
38123;SDS011;23934;47.998;9.832;2023-02-15T15:52:58;30.17;;;9.13;;
38123;SDS011;23934;47.998;9.832;2023-02-15T15:55:26;32.53;;;9.45;;
38123;SDS011;23934;47.998;9.832;2023-02-15T15:57:56;31.05;;;10.15;;
38123;SDS011;23934;47.998;9.832;2023-02-15T16:02:50;32.15;;;10.40;;
38123;SDS011;23934;47.998;9.832;2023-02-15T16:05:16;29.90;;;9.10;;
38123;SDS011;23934;47.998;9.832;2023-02-15T16:07:42;31.10;;;10.13;;
38123;SDS011;23934;47.998;9.832;2023-02-15T16:10:19;28.73;;;9.52;;
38123;SDS011;23934;47.998;9.832;2023-02-15T16:12:46;31.15;;;9.90;;
38123;SDS011;23934;47.998;9.832;2023-02-15T16:15:14;24.90;;;9.35;;
38123;SDS011;23934;47.998;9.832;2023-02-15T16:17:41;36.08;;;10.88;;
38123;SDS011;23934;47.998;9.832;2023-02-15T16:25:31;31.27;;;9.27;;
38123;SDS011;23934;47.998;9.832;2023-02-15T16:28:08;28.58;;;9.25;;
38123;SDS011;23934;47.998;9.832;2023-02-15T16:30:36;27.25;;;8.90;;
38123;SDS011;23934;47.998;9.832;2023-02-15T16:35:33;32.15;;;10.52;;
38123;SDS011;23934;47.998;9.832;2023-02-15T16:38:01;35.50;;;9.02;;
38123;SDS011;23934;47.998;9.832;2023-02-15T16:40:28;31.17;;;9.63;;
38123;SDS011;23934;47.998;9.832;2023-02-15T16:42:57;22.60;;;8.52;;
38123;SDS011;23934;47.998;9.832;2023-02-15T16:45:26;33.92;;;9.93;;
38123;SDS011;23934;47.998;9.832;2023-02-15T16:47:53;27.10;;;8.52;;
38123;SDS011;23934;47.998;9.832;2023-02-15T16:50:32;31.55;;;8.80;;
38123;SDS011;23934;47.998;9.832;2023-02-15T16:52:58;29.05;;;9.57;;
38123;SDS011;23934;47.998;9.832;2023-02-15T16:55:26;32.20;;;9.27;;
38123;SDS011;23934;47.998;9.832;2023-02-15T16:57:54;33.80;;;8.60;;
38123;SDS011;23934;47.998;9.832;2023-02-15T17:00:22;50.50;;;9.50;;
38123;SDS011;23934;47.998;9.832;2023-02-15T17:02:54;27.42;;;8.73;;
38123;SDS011;23934;47.998;9.832;2023-02-15T17:05:23;24.17;;;8.57;;
38123;SDS011;23934;47.998;9.832;2023-02-15T17:13:00;25.80;;;9.77;;
38123;SDS011;23934;47.998;9.832;2023-02-15T17:15:28;37.08;;;9.48;;
38123;SDS011;23934;47.998;9.832;2023-02-15T17:17:58;39.30;;;10.07;;
38123;SDS011;23934;47.998;9.832;2023-02-15T17:20:25;29.60;;;8.37;;
38123;SDS011;23934;47.998;9.832;2023-02-15T17:22:51;28.63;;;10.18;;
38123;SDS011;23934;47.998;9.832;2023-02-15T17:25:37;31.25;;;9.80;;
38123;SDS011;23934;47.998;9.832;2023-02-15T17:28:04;40.30;;;10.07;;
38123;SDS011;23934;47.998;9.832;2023-02-15T17:30:33;40.35;;;12.65;;
38123;SDS011;23934;47.998;9.832;2023-02-15T17:33:00;45.10;;;14.48;;
38123;SDS011;23934;47.998;9.832;2023-02-15T17:38:03;35.58;;;10.02;;
38123;SDS011;23934;47.998;9.832;2023-02-15T17:40:30;33.65;;;9.93;;
38123;SDS011;23934;47.998;9.832;2023-02-15T17:42:57;43.20;;;12.02;;
38123;SDS011;23934;47.998;9.832;2023-02-15T17:45:24;32.70;;;10.50;;